Time;durP1;ratioP1;P1;durP2;ratioP2;P2;SDS_P1;SDS_P2;PMS_P1;PMS_P2;Temp;Humidity;BMP_temperature;BMP_pressure;BME280_temperature;BME280_humidity;BME280_pressure;Samples;Min_cycle;Max_cycle;Signal;HPM_P1;HPM_P2
2023/04/25 00:00:17;;;;;;;;;;;;;;;8.77;73.64;101075.75;7358823;19;19918;-64
2023/04/25 00:02:46;;;;;;;;;;;;;;;8.77;74.17;101081.00;7361042;19;19922;-66
2023/04/25 00:05:14;;;;;;;;;;;;;;;8.73;73.82;101078.78;7361981;19;20375;-66
2023/04/25 00:07:42;;;;;;;;;;;;;;;8.67;72.55;101080.16;7361207;19;19941;-65
2023/04/25 00:10:10;;;;;;;;;;;;;;;8.65;73.57;101068.09;7359823;19;19929;-64
2023/04/25 00:12:38;;;;;;;;;;;;;;;8.65;74.92;101073.34;7358507;19;19923;-65
2023/04/25 00:15:06;;;;;;;;;;;;;;;8.61;75.32;101075.44;7356422;19;19919;-65
2023/04/25 00:17:34;;;;;;;;;;;;;;;8.56;73.38;101064.50;7363123;19;19919;-65
2023/04/25 00:20:04;;;;;;;;;;;;;;;8.51;73.92;101069.31;7359109;19;19918;-65
2023/04/25 00:22:34;;;;;;;;;;;;;;;8.47;73.63;101073.19;7359193;19;19978;-64
2023/04/25 00:25:01;;;;;;;;;;;;;;;8.44;73.88;101074.25;7359736;19;19919;-65
2023/04/25 00:27:28;;;;;;;;;;;;;;;8.38;72.77;101074.00;7363891;19;20809;-65
2023/04/25 00:29:55;;;;;;;;;;;;;;;8.36;73.57;101068.88;7358100;19;20265;-65
2023/04/25 00:32:23;;;;;;;;;;;;;;;8.34;74.76;101078.66;7358058;19;19966;-65
2023/04/25 00:34:50;;;;;;;;;;;;;;;8.28;72.67;101084.38;7362224;19;19926;-65
2023/04/25 00:37:18;;;;;;;;;;;;;;;8.27;73.40;101087.16;7360459;19;19933;-64
2023/04/25 00:39:45;;;;;;;;;;;;;;;8.24;73.93;101087.41;7356396;19;20530;-66
2023/04/25 00:42:12;;;;;;;;;;;;;;;8.19;74.15;101090.41;7360992;19;19951;-65
2023/04/25 00:44:39;;;;;;;;;;;;;;;8.14;73.98;101085.56;7356706;19;19939;-65
2023/04/25 00:47:06;;;;;;;;;;;;;;;8.10;72.69;101089.41;7361880;19;20486;-65
2023/04/25 00:49:34;;;;;;;;;;;;;;;8.06;73.21;101097.66;7360078;19;19926;-65
2023/04/25 00:52:01;;;;;;;;;;;;;;;8.03;73.09;101103.16;7360968;19;19937;-65
2023/04/25 00:54:39;;;;;;;;;;;;;;;8.01;73.46;101099.84;7390549;19;19947;-65
2023/04/25 00:57:06;;;;;;;;;;;;;;;7.99;72.39;101094.72;7392507;19;19925;-64
2023/04/25 00:59:33;;;;;;;;;;;;;;;7.99;72.47;101099.13;7389820;19;19928;-65
2023/04/25 01:02:00;;;;;;;;;;;;;;;7.93;72.75;101104.88;7392388;19;20959;-64
2023/04/25 01:04:28;;;;;;;;;;;;;;;7.87;73.80;101097.56;7392021;19;19953;-65
2023/04/25 01:06:55;;;;;;;;;;;;;;;7.85;75.06;101102.91;7395427;19;19960;-65
2023/04/25 01:09:23;;;;;;;;;;;;;;;7.76;73.55;101097.63;7393764;19;19922;-64
2023/04/25 01:11:50;;;;;;;;;;;;;;;7.77;73.75;101089.66;7394012;19;19974;-65
2023/04/25 01:14:17;;;;;;;;;;;;;;;7.79;72.92;101094.75;7387321;19;20458;-65
2023/04/25 01:16:44;;;;;;;;;;;;;;;7.77;72.97;101099.28;7393495;19;21135;-64
2023/04/25 01:19:12;;;;;;;;;;;;;;;7.76;73.03;101093.22;7389485;19;20207;-65
2023/04/25 01:21:39;;;;;;;;;;;;;;;7.71;72.97;101096.22;7393069;19;20336;-66
2023/04/25 01:24:06;;;;;;;;;;;;;;;7.67;73.33;101100.03;7391909;19;20371;-64
2023/04/25 01:26:34;;;;;;;;;;;;;;;7.67;75.11;101099.19;7393672;19;19922;-65
2023/04/25 01:29:03;;;;;;;;;;;;;;;7.64;75.67;101102.09;7391387;19;20359;-64
2023/04/25 01:31:31;;;;;;;;;;;;;;;7.61;73.85;101110.22;7391479;19;19941;-65
2023/04/25 01:33:58;;;;;;;;;;;;;;;7.59;73.39;101094.63;7391093;19;19994;-68
2023/04/25 01:36:26;;;;;;;;;;;;;;;7.58;73.21;101102.59;7390964;19;19971;-65
2023/04/25 01:38:54;;;;;;;;;;;;;;;7.57;73.71;101103.53;7392940;19;19923;-65
2023/04/25 01:41:23;;;;;;;;;;;;;;;7.54;73.41;101107.25;7389674;19;19919;-65
2023/04/25 01:43:50;;;;;;;;;;;;;;;7.50;74.14;101115.50;7393717;19;20572;-64
2023/04/25 01:46:17;;;;;;;;;;;;;;;7.48;73.28;101114.78;7389494;19;19923;-65
2023/04/25 01:48:44;;;;;;;;;;;;;;;7.45;74.44;101113.25;7390911;19;19928;-65
2023/04/25 01:51:11;;;;;;;;;;;;;;;7.44;74.67;101116.81;7393184;19;20278;-66
2023/04/25 01:53:39;;;;;;;;;;;;;;;7.46;74.26;101114.09;7388154;19;19933;-65
2023/04/25 01:56:06;;;;;;;;;;;;;;;7.46;75.38;101120.16;7393257;19;19915;-64
2023/04/25 01:58:33;;;;;;;;;;;;;;;7.49;74.70;101126.91;7395502;19;19914;-67
2023/04/25 02:01:00;;;;;;;;;;;;;;;7.50;74.48;101124.19;7385553;19;20545;-64
2023/04/25 02:03:27;;;;;;;;;;;;;;;7.52;75.09;101118.78;7392705;19;19921;-65
2023/04/25 02:05:54;;;;;;;;;;;;;;;7.50;74.02;101121.56;7361422;19;19940;-65
2023/04/25 02:08:21;;;;;;;;;;;;;;;7.48;74.72;101114.78;7363311;19;21569;-64
2023/04/25 02:10:48;;;;;;;;;;;;;;;7.45;74.56;101121.09;7364502;19;19919;-65
2023/04/25 02:13:14;;;;;;;;;;;;;;;7.47;74.14;101111.31;7364908;19;19923;-65
2023/04/25 02:15:41;;;;;;;;;;;;;;;7.45;74.59;101115.88;7361557;19;19926;-65
2023/04/25 02:18:10;;;;;;;;;;;;;;;7.43;74.45;101124.78;7365609;19;19923;-65
2023/04/25 02:20:37;;;;;;;;;;;;;;;7.38;73.32;101124.34;7363260;19;19915;-64
2023/04/25 02:23:04;;;;;;;;;;;;;;;7.34;74.54;101122.94;7363835;19;19926;-65
2023/04/25 02:25:31;;;;;;;;;;;;;;;7.26;74.33;101126.19;7363224;19;20030;-64
2023/04/25 02:27:57;;;;;;;;;;;;;;;7.22;75.38;101122.97;7363226;19;19918;-65
2023/04/25 02:30:24;;;;;;;;;;;;;;;7.19;75.16;101125.00;7358883;19;20188;-66
2023/04/25 02:32:51;;;;;;;;;;;;;;;7.15;75.19;101127.03;7363108;19;19934;-64
2023/04/25 02:35:18;;;;;;;;;;;;;;;7.13;75.92;101128.94;7362456;19;19918;-65
2023/04/25 02:37:45;;;;;;;;;;;;;;;7.11;76.14;101136.06;7361046;19;19923;-65
2023/04/25 02:40:12;;;;;;;;;;;;;;;7.10;74.73;101128.38;7362314;19;19930;-65
2023/04/25 02:42:39;;;;;;;;;;;;;;;7.09;74.84;101124.09;7366003;19;20257;-65
2023/04/25 02:45:06;;;;;;;;;;;;;;;7.08;74.57;101130.25;7357094;19;19918;-64
2023/04/25 02:47:33;;;;;;;;;;;;;;;7.07;75.16;101132.03;7361754;19;20274;-65
2023/04/25 02:50:00;;;;;;;;;;;;;;;7.08;75.53;101136.31;7359686;19;19926;-65
2023/04/25 02:52:27;;;;;;;;;;;;;;;7.07;74.56;101136.44;7361621;19;19923;-64
2023/04/25 02:54:53;;;;;;;;;;;;;;;7.04;75.08;101134.06;7362608;19;19919;-68
2023/04/25 02:57:20;;;;;;;;;;;;;;;7.02;74.90;101134.19;7362263;19;19926;-65
2023/04/25 02:59:47;;;;;;;;;;;;;;;7.03;74.23;101135.84;7354630;19;20275;-65
2023/04/25 03:02:14;;;;;;;;;;;;;;;7.00;74.25;101136.13;7363100;19;20546;-64
2023/04/25 03:04:41;;;;;;;;;;;;;;;6.98;74.49;101145.84;7362797;19;19926;-65
2023/04/25 03:07:08;;;;;;;;;;;;;;;6.99;74.17;101152.75;7360014;19;20345;-65
2023/04/25 03:09:35;;;;;;;;;;;;;;;6.98;74.08;101140.63;7361182;19;19911;-65
2023/04/25 03:12:02;;;;;;;;;;;;;;;6.97;74.40;101140.75;7364345;19;20962;-65
2023/04/25 03:14:29;;;;;;;;;;;;;;;6.96;74.15;101133.88;7357898;19;19918;-64
2023/04/25 03:16:56;;;;;;;;;;;;;;;6.97;74.29;101138.97;7360275;19;19922;-64
2023/04/25 03:19:23;;;;;;;;;;;;;;;6.97;73.70;101144.19;7360593;19;19926;-65
2023/04/25 03:21:50;;;;;;;;;;;;;;;6.98;74.04;101147.63;7362853;19;19931;-66
2023/04/25 03:24:17;;;;;;;;;;;;;;;6.90;73.41;101152.66;7360481;19;20370;-66
2023/04/25 03:26:43;;;;;;;;;;;;;;;6.91;73.97;101159.56;7362137;19;20468;-65
2023/04/25 03:29:11;;;;;;;;;;;;;;;6.90;74.31;101155.28;7358633;19;19911;-65
2023/04/25 03:31:38;;;;;;;;;;;;;;;6.83;73.35;101157.53;7361215;19;19921;-65
2023/04/25 03:34:05;;;;;;;;;;;;;;;6.77;74.33;101158.84;7357668;19;19930;-66
2023/04/25 03:36:32;;;;;;;;;;;;;;;6.73;75.99;101162.66;7362264;19;20270;-65
2023/04/25 03:38:59;;;;;;;;;;;;;;;6.73;75.73;101167.88;7361102;19;19914;-64
2023/04/25 03:41:26;;;;;;;;;;;;;;;6.73;75.17;101167.03;7361292;19;20328;-65
2023/04/25 03:43:53;;;;;;;;;;;;;;;6.70;74.85;101169.91;7361182;19;20315;-67
2023/04/25 03:46:20;;;;;;;;;;;;;;;6.68;75.20;101170.03;7350386;19;20546;-65
2023/04/25 03:48:46;;;;;;;;;;;;;;;6.65;75.45;101174.66;7359747;19;19922;-64
2023/04/25 03:51:13;;;;;;;;;;;;;;;6.61;75.43;101179.28;7356608;19;20161;-65
2023/04/25 03:53:40;;;;;;;;;;;;;;;6.52;75.33;101177.38;7358947;19;20500;-65
2023/04/25 03:56:07;;;;;;;;;;;;;;;6.50;75.66;101179.31;7362432;19;20423;-69
2023/04/25 03:58:34;;;;;;;;;;;;;;;6.47;76.86;101176.06;7364443;19;19918;-65
2023/04/25 04:01:02;;;;;;;;;;;;;;;6.47;76.28;101176.91;7353600;19;20433;-65
2023/04/25 04:03:29;;;;;;;;;;;;;;;6.48;76.24;101172.50;7361246;19;19938;-65
2023/04/25 04:05:57;;;;;;;;;;;;;;;6.48;75.70;101178.56;7360240;19;21769;-65
2023/04/25 04:08:26;;;;;;;;;;;;;;;6.49;75.94;101187.25;7359651;19;19926;-65
2023/04/25 04:10:53;;;;;;;;;;;;;;;6.49;75.63;101188.09;7359621;19;19951;-65
2023/04/25 04:13:20;;;;;;;;;;;;;;;6.48;75.15;101194.25;7360675;19;19938;-65
2023/04/25 04:15:46;;;;;;;;;;;;;;;6.49;75.80;101198.53;7355704;19;19943;-64
2023/04/25 04:18:13;;;;;;;;;;;;;;;6.48;76.01;101189.03;7361282;19;20432;-65
2023/04/25 04:20:40;;;;;;;;;;;;;;;6.50;75.69;101192.38;7356961;19;19922;-64
2023/04/25 04:23:07;;;;;;;;;;;;;;;6.49;75.44;101202.94;7360437;19;19921;-67
2023/04/25 04:25:34;;;;;;;;;;;;;;;6.45;75.43;101197.09;7356532;19;19915;-65
2023/04/25 04:28:01;;;;;;;;;;;;;;;6.42;75.69;101208.63;7357167;19;19915;-66
2023/04/25 04:30:30;;;;;;;;;;;;;;;6.38;75.75;101209.81;7355781;19;20150;-65
2023/04/25 04:32:57;;;;;;;;;;;;;;;6.38;76.16;101214.19;7360376;19;19982;-66
2023/04/25 04:35:24;;;;;;;;;;;;;;;6.35;75.90;101217.84;7355455;19;20657;-65
2023/04/25 04:37:51;;;;;;;;;;;;;;;6.39;77.41;101221.09;7360184;19;19923;-66
2023/04/25 04:40:18;;;;;;;;;;;;;;;6.43;76.75;101232.97;7358080;19;19917;-66
2023/04/25 04:42:45;;;;;;;;;;;;;;;6.42;75.84;101232.13;7358037;19;19915;-66
2023/04/25 04:45:12;;;;;;;;;;;;;;;6.42;76.59;101239.16;7355107;19;19927;-66
2023/04/25 04:47:40;;;;;;;;;;;;;;;6.38;76.43;101241.16;7358991;19;20514;-65
2023/04/25 04:50:09;;;;;;;;;;;;;;;6.37;76.77;101242.09;7358431;19;20002;-65
2023/04/25 04:52:36;;;;;;;;;;;;;;;6.38;76.79;101243.78;7356967;19;19919;-66
2023/04/25 04:55:04;;;;;;;;;;;;;;;6.34;75.93;101242.34;7356950;19;20156;-64
2023/04/25 04:57:32;;;;;;;;;;;;;;;6.32;76.31;101240.78;7359785;19;19923;-67
2023/04/25 05:00:00;;;;;;;;;;;;;;;6.33;76.85;101242.47;7356144;19;20380;-65
2023/04/25 05:02:27;;;;;;;;;;;;;;;6.33;77.11;101245.06;7359055;19;19931;-66
2023/04/25 05:04:55;;;;;;;;;;;;;;;6.37;77.01;101249.09;7358086;19;19922;-65
2023/04/25 05:07:23;;;;;;;;;;;;;;;6.38;76.94;101240.31;7358599;19;19999;-64
2023/04/25 05:09:49;;;;;;;;;;;;;;;6.36;76.14;101242.22;7358150;19;19940;-64
2023/04/25 05:12:16;;;;;;;;;;;;;;;6.35;75.88;101244.00;7358898;19;20340;-62
2023/04/25 05:14:43;;;;;;;;;;;;;;;6.38;75.87;101258.63;7353589;19;19915;-62
2023/04/25 05:17:10;;;;;;;;;;;;;;;6.37;75.38;101270.84;7358497;19;19923;-63
2023/04/25 05:19:37;;;;;;;;;;;;;;;6.37;75.95;101265.63;7358179;19;19913;-63
2023/04/25 05:22:04;;;;;;;;;;;;;;;6.34;75.50;101280.72;7357970;19;19926;-64
2023/04/25 05:24:31;;;;;;;;;;;;;;;6.33;75.52;101289.50;7356044;19;19911;-65
2023/04/25 05:26:58;;;;;;;;;;;;;;;6.35;75.87;101285.81;7356849;19;20020;-63
2023/04/25 05:29:25;;;;;;;;;;;;;;;6.33;74.92;101282.50;7354720;19;19926;-64
2023/04/25 05:31:52;;;;;;;;;;;;;;;6.35;75.15;101293.63;7357257;19;19930;-63
2023/04/25 05:34:19;;;;;;;;;;;;;;;6.36;75.01;101297.09;7356799;19;19915;-62
2023/04/25 05:36:48;;;;;;;;;;;;;;;6.38;75.13;101306.50;7358070;19;20770;-64
2023/04/25 05:39:16;;;;;;;;;;;;;;;6.38;74.70;101309.09;7357751;19;20542;-64
2023/04/25 05:41:43;;;;;;;;;;;;;;;6.41;75.45;101316.72;7361695;19;19960;-63
2023/04/25 05:44:10;;;;;;;;;;;;;;;6.40;75.77;101319.41;7360693;19;19923;-63
2023/04/25 05:46:37;;;;;;;;;;;;;;;6.42;75.31;101322.78;7363953;19;19974;-63
2023/04/25 05:49:04;;;;;;;;;;;;;;;6.47;75.38;101311.97;7366277;19;19921;-64
2023/04/25 05:51:31;;;;;;;;;;;;;;;6.53;75.91;101314.97;7363497;19;20327;-64
2023/04/25 05:53:58;;;;;;;;;;;;;;;6.60;75.65;101310.13;7360634;19;19939;-64
2023/04/25 05:56:25;;;;;;;;;;;;;;;6.65;75.65;101318.47;7361975;19;19930;-65
2023/04/25 05:58:52;;;;;;;;;;;;;;;6.67;74.19;101320.00;7364431;19;20414;-63
2023/04/25 06:01:19;;;;;;;;;;;;;;;6.72;73.97;101327.47;7355491;19;20491;-63
2023/04/25 06:03:46;;;;;;;;;;;;;;;6.73;74.19;101332.59;7363853;19;19919;-62
2023/04/25 06:06:14;;;;;;;;;;;;;;;6.74;73.43;101329.06;7363964;19;21406;-65
2023/04/25 06:08:41;;;;;;;;;;;;;;;6.81;73.69;101332.00;7362195;19;19921;-63
2023/04/25 06:11:08;;;;;;;;;;;;;;;6.80;72.94;101325.13;7361501;19;19942;-63
2023/04/25 06:13:35;;;;;;;;;;;;;;;6.75;72.84;101324.66;7363506;19;20002;-61
2023/04/25 06:16:02;;;;;;;;;;;;;;;6.78;72.48;101334.88;7356837;19;21082;-63
2023/04/25 06:18:29;;;;;;;;;;;;;;;6.78;72.15;101325.25;7362029;19;20027;-63
2023/04/25 06:20:56;;;;;;;;;;;;;;;6.83;72.67;101332.75;7363614;19;19915;-62
2023/04/25 06:23:23;;;;;;;;;;;;;;;6.82;72.56;101342.38;7363597;19;19946;-63
2023/04/25 06:25:50;;;;;;;;;;;;;;;6.81;72.27;101339.84;7362570;19;20746;-62
2023/04/25 06:28:17;;;;;;;;;;;;;;;6.85;73.29;101347.38;7363773;19;19938;-65
2023/04/25 06:30:44;;;;;;;;;;;;;;;6.90;72.04;101340.97;7356114;19;19921;-62
2023/04/25 06:33:11;;;;;;;;;;;;;;;6.97;72.13;101342.97;7360686;19;19918;-64
2023/04/25 06:35:38;;;;;;;;;;;;;;;7.38;72.58;101338.97;7362576;19;19980;-63
2023/04/25 06:38:05;;;;;;;;;;;;;;;7.85;69.33;101357.00;7361444;19;19961;-63
2023/04/25 06:40:32;;;;;;;;;;;;;;;8.04;68.28;101351.13;7361789;19;19932;-62
2023/04/25 06:42:59;;;;;;;;;;;;;;;8.12;67.92;101356.59;7363196;19;19922;-63
2023/04/25 06:45:26;;;;;;;;;;;;;;;8.33;67.04;101352.22;7356798;19;19957;-65
2023/04/25 06:47:53;;;;;;;;;;;;;;;8.42;65.58;101362.00;7360812;19;19929;-63
2023/04/25 06:50:20;;;;;;;;;;;;;;;8.62;65.12;101351.66;7362079;19;19926;-63
2023/04/25 06:52:47;;;;;;;;;;;;;;;8.73;65.43;101357.69;7360852;19;19944;-63
2023/04/25 06:55:14;;;;;;;;;;;;;;;8.78;64.81;101363.38;7360097;19;19931;-63
2023/04/25 06:57:41;;;;;;;;;;;;;;;8.91;64.17;101371.03;7362801;19;19947;-64
2023/04/25 07:00:10;;;;;;;;;;;;;;;9.20;63.20;101366.78;7360181;19;19918;-62
2023/04/25 07:02:37;;;;;;;;;;;;;;;9.68;62.84;101359.09;7359921;19;19923;-63
2023/04/25 07:05:08;;;;;;;;;;;;;;;9.97;59.63;101363.59;7360755;19;20000;-66
2023/04/25 07:07:35;;;;;;;;;;;;;;;10.16;59.73;101369.72;7362579;19;19925;-62
2023/04/25 07:10:03;;;;;;;;;;;;;;;10.37;58.79;101368.78;7358462;19;19911;-63
2023/04/25 07:12:31;;;;;;;;;;;;;;;10.42;58.61;101364.75;7361575;19;19951;-62
2023/04/25 07:14:58;;;;;;;;;;;;;;;10.43;59.48;101366.44;7358814;19;20568;-63
2023/04/25 07:17:25;;;;;;;;;;;;;;;10.53;58.40;101376.94;7361042;19;19933;-64
2023/04/25 07:19:52;;;;;;;;;;;;;;;10.57;57.58;101371.28;7361252;19;19967;-64
2023/04/25 07:22:27;;;;;;;;;;;;;;;10.51;57.98;101377.13;7362622;19;19994;-64
2023/04/25 07:24:54;;;;;;;;;;;;;;;10.49;58.39;101384.31;7356045;19;19982;-62
2023/04/25 07:27:21;;;;;;;;;;;;;;;10.45;58.31;101382.09;7362963;19;19923;-63
2023/04/25 07:29:48;;;;;;;;;;;;;;;10.32;58.54;101395.50;7359742;19;20095;-64
2023/04/25 07:32:15;;;;;;;;;;;;;;;10.15;59.56;101396.97;7360635;19;19918;-64
2023/04/25 07:34:43;;;;;;;;;;;;;;;9.98;59.69;101402.06;7360635;19;19957;-62
2023/04/25 07:37:10;;;;;;;;;;;;;;;9.80;60.36;101400.06;7360028;19;19950;-64
2023/04/25 07:39:37;;;;;;;;;;;;;;;9.78;60.41;101404.63;7362672;19;20578;-64
2023/04/25 07:42:07;;;;;;;;;;;;;;;10.28;58.23;101394.94;7359646;19;20248;-63
2023/04/25 07:44:38;;;;;;;;;;;;;;;11.08;57.79;101412.22;7355482;19;19925;-64
2023/04/25 07:47:06;;;;;;;;;;;;;;;11.86;55.36;101409.22;7361150;19;19914;-62
2023/04/25 07:49:35;;;;;;;;;;;;;;;12.16;56.85;101408.06;7357128;19;19923;-62
2023/04/25 07:52:03;;;;;;;;;;;;;;;12.26;53.52;101418.56;7360320;19;19915;-62
2023/04/25 07:54:30;;;;;;;;;;;;;;;12.22;52.58;101415.41;7357600;19;20023;-62
2023/04/25 07:57:00;;;;;;;;;;;;;;;12.24;52.39;101421.34;7360477;19;19915;-63
2023/04/25 07:59:27;;;;;;;;;;;;;;;12.48;51.93;101427.84;7354066;19;20014;-62
2023/04/25 08:01:57;;;;;;;;;;;;;;;12.62;51.13;101429.97;7361691;19;19935;-64
2023/04/25 08:04:25;;;;;;;;;;;;;;;12.46;51.36;101433.28;7359670;19;19918;-64
2023/04/25 08:06:54;;;;;;;;;;;;;;;12.14;51.40;101454.06;7361073;19;19929;-63
2023/04/25 08:09:21;;;;;;;;;;;;;;;11.98;51.95;101441.50;7324222;19;19925;-62
2023/04/25 08:11:55;;;;;;;;;;;;;;;11.86;51.21;101446.13;7351624;19;19931;-62
2023/04/25 08:14:23;;;;;;;;;;;;;;;11.96;51.38;101441.63;7349478;19;19922;-63
2023/04/25 08:16:51;;;;;;;;;;;;;;;11.82;51.03;101438.66;7352472;19;19951;-64
2023/04/25 08:19:20;;;;;;;;;;;;;;;11.87;51.49;101442.53;7356376;19;20335;-63
2023/04/25 08:21:47;;;;;;;;;;;;;;;11.97;51.77;101442.47;7356153;19;20016;-63
2023/04/25 08:24:14;;;;;;;;;;;;;;;11.92;51.50;101444.72;7353696;19;19994;-63
2023/04/25 08:26:41;;;;;;;;;;;;;;;11.64;52.32;101437.72;7350835;19;20554;-63
2023/04/25 08:29:09;;;;;;;;;;;;;;;11.35;53.65;101446.56;7347456;19;20401;-62
2023/04/25 08:31:37;;;;;;;;;;;;;;;10.91;54.12;101448.00;7349544;19;20268;-64
2023/04/25 08:34:05;;;;;;;;;;;;;;;10.73;54.90;101458.41;7352533;19;20018;-63
2023/04/25 08:36:32;;;;;;;;;;;;;;;10.59;55.83;101453.53;7350440;19;19928;-63
2023/04/25 08:39:05;;;;;;;;;;;;;;;10.55;55.62;101446.06;7352006;19;20415;-64
2023/04/25 08:41:32;;;;;;;;;;;;;;;10.38;56.20;101450.19;7351172;19;19914;-63
2023/04/25 08:44:00;;;;;;;;;;;;;;;10.23;56.27;101441.84;7344028;19;21493;-64
2023/04/25 08:46:28;;;;;;;;;;;;;;;10.25;57.52;101439.94;7342346;19;19923;-63
2023/04/25 08:48:59;;;;;;;;;;;;;;;10.22;56.14;101444.63;7351671;19;20783;-64
2023/04/25 08:51:27;;;;;;;;;;;;;;;10.22;56.53;101442.81;7352866;19;20010;-64
2023/04/25 08:53:56;;;;;;;;;;;;;;;10.25;57.88;101442.56;7353361;19;19911;-64
2023/04/25 08:56:27;;;;;;;;;;;;;;;10.32;57.30;101442.84;7347622;19;19919;-64
2023/04/25 08:58:55;;;;;;;;;;;;;;;10.39;57.46;101443.97;7353276;19;20416;-63
2023/04/25 09:01:22;;;;;;;;;;;;;;;10.46;58.13;101437.22;7346580;19;19934;-62
2023/04/25 09:03:50;;;;;;;;;;;;;;;10.57;57.12;101439.69;7353127;19;19922;-62
2023/04/25 09:06:19;;;;;;;;;;;;;;;10.68;57.12;101444.81;7351350;19;19918;-63
2023/04/25 09:08:46;;;;;;;;;;;;;;;10.70;53.82;101442.88;7351847;19;20338;-61
2023/04/25 09:11:14;;;;;;;;;;;;;;;10.66;54.25;101446.78;7350742;19;19922;-62
2023/04/25 09:13:41;;;;;;;;;;;;;;;10.65;54.17;101447.75;7348715;19;19918;-62
2023/04/25 09:16:08;;;;;;;;;;;;;;;10.66;52.19;101448.56;7352120;19;20328;-63
2023/04/25 09:18:36;;;;;;;;;;;;;;;10.65;53.45;101442.47;7362541;19;19929;-63
2023/04/25 09:21:07;;;;;;;;;;;;;;;10.67;54.36;101444.94;7355222;19;20012;-61
2023/04/25 09:23:41;;;;;;;;;;;;;;;10.71;52.70;101447.19;7359622;19;20582;-65
2023/04/25 09:26:09;;;;;;;;;;;;;;;10.81;51.75;101447.19;7356928;19;19923;-64
2023/04/25 09:28:37;;;;;;;;;;;;;;;10.83;51.38;101445.22;7360425;19;19939;-62
2023/04/25 09:31:05;;;;;;;;;;;;;;;10.76;52.62;101445.94;7359953;19;20269;-64
2023/04/25 09:33:35;;;;;;;;;;;;;;;10.83;53.33;101445.22;7360105;19;19918;-63
2023/04/25 09:36:04;;;;;;;;;;;;;;;10.69;52.24;101456.19;7356325;19;19944;-62
2023/04/25 09:38:32;;;;;;;;;;;;;;;10.71;52.42;101449.00;7358638;19;19943;-64
2023/04/25 09:41:00;;;;;;;;;;;;;;;10.58;50.45;101451.03;7360008;19;20258;-63
2023/04/25 09:43:33;;;;;;;;;;;;;;;10.29;51.16;101451.84;7358914;19;19968;-64
2023/04/25 09:46:00;;;;;;;;;;;;;;;10.45;53.14;101446.06;7357129;19;19994;-63
2023/04/25 09:48:29;;;;;;;;;;;;;;;10.39;51.30;101451.03;7358305;19;20587;-63
2023/04/25 09:51:05;;;;;;;;;;;;;;;10.39;51.96;101437.88;7361473;19;20006;-63
2023/04/25 09:53:33;;;;;;;;;;;;;;;10.37;52.38;101442.44;7357622;19;19963;-63
2023/04/25 09:56:03;;;;;;;;;;;;;;;10.37;53.08;101442.44;7357805;19;19930;-64
2023/04/25 09:58:30;;;;;;;;;;;;;;;10.46;53.19;101447.72;7358705;19;19934;-63
2023/04/25 10:01:01;;;;;;;;;;;;;;;10.56;53.00;101438.03;7353782;19;20463;-63
2023/04/25 10:03:30;;;;;;;;;;;;;;;10.60;52.43;101442.06;7358357;19;19943;-63
2023/04/25 10:05:59;;;;;;;;;;;;;;;10.66;51.26;101449.41;7356405;19;20877;-64
2023/04/25 10:08:30;;;;;;;;;;;;;;;10.76;50.10;101443.31;7358723;19;19955;-62
2023/04/25 10:11:00;;;;;;;;;;;;;;;10.91;50.34;101428.75;7360037;19;20862;-62
2023/04/25 10:13:28;;;;;;;;;;;;;;;11.01;50.20;101435.66;7352699;19;20019;-64
2023/04/25 10:15:57;;;;;;;;;;;;;;;11.23;51.25;101431.03;7356213;19;20391;-63
2023/04/25 10:18:26;;;;;;;;;;;;;;;11.38;50.28;101440.16;7357622;19;19939;-64
2023/04/25 10:20:55;;;;;;;;;;;;;;;11.54;50.51;101435.94;7359993;19;20282;-63
2023/04/25 10:23:23;;;;;;;;;;;;;;;11.64;48.24;101446.47;7361639;19;19927;-63
2023/04/25 10:25:51;;;;;;;;;;;;;;;11.75;47.55;101448.13;7355731;19;19919;-63
2023/04/25 10:28:19;;;;;;;;;;;;;;;11.82;48.94;101450.03;7353686;19;20349;-64
2023/04/25 10:30:56;;;;;;;;;;;;;;;11.84;48.91;101450.72;7358540;19;19919;-63
2023/04/25 10:33:34;;;;;;;;;;;;;;;11.78;49.05;101446.03;7356103;19;19918;-62
2023/04/25 10:36:10;;;;;;;;;;;;;;;11.59;46.31;101444.25;7352824;19;20313;-62
2023/04/25 10:38:38;;;;;;;;;;;;;;;11.41;44.64;101453.06;7358018;19;19953;-62
2023/04/25 10:41:08;;;;;;;;;;;;;;;11.31;44.74;101444.34;7356706;19;19922;-63
2023/04/25 10:43:38;;;;;;;;;;;;;;;11.29;45.67;101447.13;7357589;19;20321;-60
2023/04/25 10:46:14;;;;;;;;;;;;;;;11.23;41.71;101452.09;7352277;19;19915;-62
2023/04/25 10:48:49;;;;;;;;;;;;;;;11.14;41.36;101452.00;7355506;19;19925;-61
2023/04/25 10:51:19;;;;;;;;;;;;;;;11.22;41.59;101446.03;7355388;19;19974;-61
2023/04/25 10:53:46;;;;;;;;;;;;;;;11.25;41.88;101444.91;7354882;19;19926;-64
2023/04/25 10:56:19;;;;;;;;;;;;;;;11.27;43.65;101442.97;7352159;19;20010;-63
2023/04/25 10:58:47;;;;;;;;;;;;;;;11.30;43.46;101448.78;7357154;19;20357;-61
2023/04/25 11:01:21;;;;;;;;;;;;;;;11.46;44.26;101451.66;7351826;19;20428;-64
2023/04/25 11:04:07;;;;;;;;;;;;;;;11.67;43.37;101446.19;7358284;19;19915;-63
2023/04/25 11:06:45;;;;;;;;;;;;;;;11.71;43.30;101441.44;7358677;19;19923;-62
2023/04/25 11:09:13;;;;;;;;;;;;;;;11.66;44.56;101448.97;7357560;19;20183;-63
2023/04/25 11:11:40;;;;;;;;;;;;;;;11.58;43.62;101452.28;7359119;19;21564;-65
2023/04/25 11:14:07;;;;;;;;;;;;;;;11.40;44.23;101440.84;7348207;19;20006;-65
2023/04/25 11:16:36;;;;;;;;;;;;;;;11.40;45.07;101440.84;7350733;19;19919;-63
2023/04/25 11:19:03;;;;;;;;;;;;;;;11.45;45.95;101446.53;7351655;19;20318;-61
2023/04/25 11:21:31;;;;;;;;;;;;;;;11.53;44.73;101439.56;7357302;19;19923;-62
2023/04/25 11:23:59;;;;;;;;;;;;;;;11.65;45.40;101444.66;7355893;19;20546;-63
2023/04/25 11:26:28;;;;;;;;;;;;;;;11.81;44.03;101447.53;7354577;19;20443;-63
2023/04/25 11:29:01;;;;;;;;;;;;;;;11.82;43.64;101446.56;7356298;19;19929;-64
2023/04/25 11:31:29;;;;;;;;;;;;;;;11.75;43.26;101443.69;7355875;19;19915;-63
2023/04/25 11:33:57;;;;;;;;;;;;;;;11.79;43.27;101434.50;7355315;19;19923;-66
2023/04/25 11:36:25;;;;;;;;;;;;;;;11.79;41.86;101444.22;7351458;19;19923;-65
2023/04/25 11:38:53;;;;;;;;;;;;;;;11.78;42.59;101439.94;7352710;19;19949;-65
2023/04/25 11:41:21;;;;;;;;;;;;;;;11.87;42.39;101439.88;7359626;19;19922;-64
2023/04/25 11:43:50;;;;;;;;;;;;;;;12.02;42.83;101448.13;7359665;19;19918;-63
2023/04/25 11:46:19;;;;;;;;;;;;;;;12.18;43.60;101440.41;7357189;19;20332;-64
2023/04/25 11:48:47;;;;;;;;;;;;;;;12.34;42.53;101447.69;7360959;19;20389;-64
2023/04/25 11:51:15;;;;;;;;;;;;;;;12.40;42.23;101439.16;7357825;19;19911;-64
2023/04/25 11:53:44;;;;;;;;;;;;;;;12.43;42.31;101447.63;7359735;19;19934;-64
2023/04/25 11:56:11;;;;;;;;;;;;;;;12.44;41.09;101440.53;7358545;19;20216;-65
2023/04/25 11:58:48;;;;;;;;;;;;;;;12.39;41.48;101440.16;7362057;19;20266;-64
2023/04/25 12:01:26;;;;;;;;;;;;;;;12.31;42.10;101447.97;7356838;19;19956;-65
2023/04/25 12:04:12;;;;;;;;;;;;;;;12.21;41.08;101448.03;7356493;19;19927;-64
2023/04/25 12:06:41;;;;;;;;;;;;;;;12.19;41.53;101454.44;7358847;19;19923;-65
2023/04/25 12:09:10;;;;;;;;;;;;;;;12.21;40.75;101444.56;7358929;19;19927;-64
2023/04/25 12:11:41;;;;;;;;;;;;;;;12.23;41.64;101451.34;7359755;19;19926;-66
2023/04/25 12:14:09;;;;;;;;;;;;;;;12.25;41.36;101446.75;7356837;19;19923;-63
2023/04/25 12:16:44;;;;;;;;;;;;;;;12.00;40.97;101452.72;7357015;19;19957;-63
2023/04/25 12:19:15;;;;;;;;;;;;;;;11.91;41.76;101453.59;7358228;19;20226;-64
2023/04/25 12:21:43;;;;;;;;;;;;;;;12.04;43.48;101448.81;7361019;19;19923;-64
2023/04/25 12:24:25;;;;;;;;;;;;;;;12.27;43.41;101457.16;7357307;19;19945;-64
2023/04/25 12:26:54;;;;;;;;;;;;;;;12.37;42.35;101456.13;7360491;19;19929;-65
2023/04/25 12:29:22;;;;;;;;;;;;;;;12.36;43.04;101467.66;7359783;19;19953;-64
2023/04/25 12:31:53;;;;;;;;;;;;;;;12.30;40.58;101460.31;7359094;19;19911;-65
2023/04/25 12:34:21;;;;;;;;;;;;;;;12.34;40.96;101460.88;7358318;19;19918;-65
2023/04/25 12:36:49;;;;;;;;;;;;;;;12.29;41.05;101448.09;7358349;19;19966;-64
2023/04/25 12:39:17;;;;;;;;;;;;;;;12.29;40.91;101449.94;7360501;19;20354;-65
2023/04/25 12:41:45;;;;;;;;;;;;;;;12.39;40.09;101458.63;7358739;19;19994;-64
2023/04/25 12:44:13;;;;;;;;;;;;;;;12.40;39.55;101458.44;7354488;19;19931;-64
2023/04/25 12:46:41;;;;;;;;;;;;;;;12.39;40.49;101462.06;7357559;19;19927;-64